Time;durP1;ratioP1;P1;durP2;ratioP2;P2;SDS_P1;SDS_P2;PMS_P1;PMS_P2;Temp;Humidity;BMP_temperature;BMP_pressure;BME280_temperature;BME280_humidity;BME280_pressure;Samples;Min_cycle;Max_cycle;Signal;HPM_P1;HPM_P2
2022/02/20 00:00:38;;;;;;;6.68;2.72;;;2.50;99.90;;;;;;5095424;28;20110;-82
2022/02/20 00:03:04;;;;;;;3.47;3.03;;;2.50;99.90;;;;;;5096076;28;20021;-82
2022/02/20 00:05:30;;;;;;;4.82;2.42;;;2.50;99.90;;;;;;5095029;28;20020;-83
2022/02/20 00:07:56;;;;;;;5.25;2.67;;;2.50;99.90;;;;;;5095723;28;20028;-83
2022/02/20 00:10:22;;;;;;;6.50;2.67;;;2.50;99.90;;;;;;5095383;28;20077;-80
2022/02/20 00:12:47;;;;;;;7.18;3.65;;;2.50;99.90;;;;;;5095562;28;20028;-81
2022/02/20 00:15:13;;;;;;;5.20;3.05;;;2.50;99.90;;;;;;5094854;28;20131;-83
2022/02/20 00:17:39;;;;;;;3.53;2.40;;;2.50;99.90;;;;;;5093317;28;20024;-83
2022/02/20 00:20:06;;;;;;;4.15;2.33;;;2.50;99.90;;;;;;5094874;28;20027;-81
2022/02/20 00:22:32;;;;;;;4.70;3.40;;;2.40;99.90;;;;;;5094442;28;20106;-82
2022/02/20 00:24:57;;;;;;;4.97;2.80;;;2.40;99.90;;;;;;5095375;28;20128;-81
2022/02/20 00:27:27;;;;;;;3.05;2.35;;;2.40;99.90;;;;;;5103698;28;20077;-79
2022/02/20 00:29:53;;;;;;;5.22;2.92;;;2.40;99.90;;;;;;5104173;28;20042;-79
2022/02/20 00:32:19;;;;;;;4.57;3.03;;;2.40;99.90;;;;;;5098553;28;20020;-80
2022/02/20 00:34:45;;;;;;;4.65;3.20;;;2.40;99.90;;;;;;5095810;28;20088;-81
2022/02/20 00:37:12;;;;;;;3.83;2.22;;;2.40;99.90;;;;;;5095420;28;20107;-80
2022/02/20 00:39:38;;;;;;;2.83;2.53;;;2.40;99.90;;;;;;5096741;28;20036;-79
2022/02/20 00:42:03;;;;;;;4.15;2.20;;;2.50;99.90;;;;;;5094740;28;20024;-82
2022/02/20 00:44:29;;;;;;;3.00;2.42;;;2.50;99.90;;;;;;5094509;28;20024;-81
2022/02/20 00:46:55;;;;;;;2.47;2.17;;;2.40;99.90;;;;;;5094250;28;20031;-80
2022/02/20 00:49:21;;;;;;;3.63;3.15;;;2.40;99.90;;;;;;5094285;28;20102;-81
2022/02/20 00:51:47;;;;;;;3.58;2.00;;;2.40;99.90;;;;;;5094282;28;20030;-81
2022/02/20 00:54:12;;;;;;;4.50;2.00;;;2.40;99.90;;;;;;5094798;28;20039;-81
2022/02/20 00:56:38;;;;;;;4.13;2.13;;;2.40;99.90;;;;;;5095382;28;20123;-79
2022/02/20 00:59:04;;;;;;;2.72;2.15;;;2.40;99.90;;;;;;5102046;28;20023;-83
2022/02/20 01:01:31;;;;;;;2.78;2.03;;;2.40;99.90;;;;;;5095324;28;20020;-82
2022/02/20 01:03:57;;;;;;;2.88;2.28;;;2.40;99.90;;;;;;5094566;28;20024;-82
2022/02/20 01:06:23;;;;;;;3.67;2.30;;;2.40;99.90;;;;;;5097964;28;20016;-80
2022/02/20 01:08:50;;;;;;;2.63;2.35;;;2.30;99.90;;;;;;5093559;28;20024;-81
2022/02/20 01:11:16;;;;;;;4.18;2.60;;;2.30;99.90;;;;;;5105396;28;20498;-81
2022/02/20 01:13:42;;;;;;;3.92;1.90;;;2.30;99.90;;;;;;5094959;28;20012;-81
2022/02/20 01:16:08;;;;;;;3.15;2.65;;;2.30;99.90;;;;;;5094185;28;20059;-79
2022/02/20 01:18:34;;;;;;;2.65;2.05;;;2.30;99.90;;;;;;5094161;28;20028;-79
2022/02/20 01:21:00;;;;;;;3.13;2.35;;;2.20;99.90;;;;;;5095523;28;20032;-79
2022/02/20 01:23:26;;;;;;;3.85;2.30;;;2.20;99.90;;;;;;5105706;28;20024;-82
2022/02/20 01:25:52;;;;;;;2.33;2.13;;;2.20;99.90;;;;;;5103640;28;20024;-82
2022/02/20 01:28:19;;;;;;;2.10;1.70;;;2.20;99.90;;;;;;5096862;28;20023;-80
2022/02/20 01:30:46;;;;;;;1.50;1.40;;;2.20;99.90;;;;;;5095035;28;20024;-81
2022/02/20 01:33:12;;;;;;;3.30;2.20;;;2.20;99.90;;;;;;5094717;28;20069;-81
2022/02/20 01:35:38;;;;;;;2.60;2.10;;;2.20;99.90;;;;;;5095581;28;20039;-82
2022/02/20 01:38:04;;;;;;;2.40;1.80;;;2.20;99.90;;;;;;5093954;28;20065;-83
2022/02/20 01:40:30;;;;;;;2.25;1.67;;;2.20;99.90;;;;;;5093284;28;20055;-84
2022/02/20 01:42:57;;;;;;;4.03;2.03;;;2.20;99.90;;;;;;5094721;28;20058;-82
2022/02/20 01:45:23;;;;;;;2.80;1.50;;;2.20;99.90;;;;;;5098008;28;20059;-82
2022/02/20 01:47:49;;;;;;;2.70;2.15;;;2.20;99.90;;;;;;5108921;28;20024;-81
2022/02/20 01:50:16;;;;;;;1.80;1.60;;;2.20;99.90;;;;;;5111092;28;20027;-83
2022/02/20 01:52:45;;;;;;;4.43;2.57;;;2.10;99.90;;;;;;5112352;28;20016;-81
2022/02/20 01:55:13;;;;;;;0.88;0.88;;;2.10;99.90;;;;;;5099838;28;20116;-83
2022/02/20 01:57:42;;;;;;;3.03;1.80;;;2.10;99.90;;;;;;5093875;28;20044;-83
2022/02/20 02:00:12;;;;;;;2.05;1.40;;;2.00;99.90;;;;;;5112536;28;20107;-82
2022/02/20 02:02:38;;;;;;;2.65;1.60;;;2.10;99.90;;;;;;5116597;28;20423;-81
2022/02/20 02:05:04;;;;;;;1.90;1.73;;;2.00;99.90;;;;;;5109509;28;20019;-81
2022/02/20 02:07:30;;;;;;;2.60;1.58;;;2.00;99.90;;;;;;5093768;28;20024;-81
2022/02/20 02:09:56;;;;;;;2.50;1.55;;;2.00;99.90;;;;;;5093182;28;20426;-82
2022/02/20 02:12:22;;;;;;;1.63;1.52;;;2.00;99.90;;;;;;5093306;28;20035;-81
2022/02/20 02:14:58;;;;;;;4.25;1.73;;;2.00;99.90;;;;;;5092972;28;20048;-82
2022/02/20 02:17:25;;;;;;;1.80;1.45;;;2.00;99.90;;;;;;5093897;28;20028;-81
2022/02/20 02:19:51;;;;;;;1.75;1.48;;;2.00;99.90;;;;;;5102398;28;20075;-82
2022/02/20 02:22:21;;;;;;;2.42;1.75;;;2.00;99.90;;;;;;5114752;28;20024;-82
2022/02/20 02:24:47;;;;;;;2.20;1.60;;;2.00;99.90;;;;;;5101223;28;20466;-81
2022/02/20 02:27:14;;;;;;;1.88;1.48;;;2.10;99.90;;;;;;5113133;28;20116;-82
2022/02/20 02:29:42;;;;;;;2.08;1.70;;;2.00;99.90;;;;;;5099354;28;20077;-82
2022/02/20 02:32:08;;;;;;;3.40;2.22;;;2.00;99.90;;;;;;5097383;28;20024;-82
2022/02/20 02:34:34;;;;;;;2.92;1.75;;;2.00;99.90;;;;;;5100312;28;20070;-81
2022/02/20 02:37:00;;;;;;;3.97;2.15;;;1.90;99.90;;;;;;5094923;28;20061;-83
2022/02/20 02:39:26;;;;;;;2.63;1.98;;;2.00;99.90;;;;;;5092976;28;20024;-82
2022/02/20 02:41:51;;;;;;;2.05;1.83;;;2.00;99.90;;;;;;5090894;28;20035;-82
2022/02/20 02:44:17;;;;;;;2.50;2.30;;;2.00;99.90;;;;;;5092619;28;20050;-83
2022/02/20 02:46:43;;;;;;;2.40;1.90;;;2.00;99.90;;;;;;5097588;28;20540;-81
2022/02/20 02:49:09;;;;;;;3.00;1.92;;;2.00;99.90;;;;;;5114408;28;20100;-82
2022/02/20 02:51:36;;;;;;;2.63;1.70;;;2.00;99.90;;;;;;5115417;28;20362;-84
2022/02/20 02:54:08;;;;;;;4.40;1.83;;;1.90;99.90;;;;;;5113230;28;20024;-84
2022/02/20 02:56:34;;;;;;;1.95;1.60;;;2.00;99.90;;;;;;5116670;28;20390;-82
2022/02/20 02:59:00;;;;;;;2.70;2.07;;;2.00;99.90;;;;;;5116932;28;20485;-82
2022/02/20 03:01:26;;;;;;;2.55;1.90;;;2.00;99.90;;;;;;5117258;28;20031;-81
2022/02/20 03:03:52;;;;;;;2.25;1.80;;;2.00;99.90;;;;;;5110388;28;20072;-81
2022/02/20 03:06:18;;;;;;;2.38;2.00;;;2.00;99.90;;;;;;5096583;28;20397;-80
2022/02/20 03:08:44;;;;;;;3.00;2.33;;;2.00;99.90;;;;;;5097057;28;20024;-82
2022/02/20 03:11:10;;;;;;;4.30;2.60;;;2.10;99.90;;;;;;5097389;28;20028;-83
2022/02/20 03:13:37;;;;;;;2.42;2.00;;;2.20;99.90;;;;;;5095456;28;20028;-81
2022/02/20 03:16:03;;;;;;;2.30;1.95;;;2.10;99.90;;;;;;5104514;28;20051;-83
2022/02/20 03:18:31;;;;;;;4.00;2.15;;;2.10;99.90;;;;;;5116670;27;20054;-82
2022/02/20 03:20:58;;;;;;;2.33;2.00;;;2.10;99.90;;;;;;5104793;28;20451;-82
2022/02/20 03:23:24;;;;;;;2.60;2.37;;;2.10;99.90;;;;;;5095118;28;20085;-81
2022/02/20 03:25:50;;;;;;;2.75;2.25;;;2.20;99.90;;;;;;5101306;28;20263;-82
2022/02/20 03:28:16;;;;;;;2.67;1.80;;;2.20;99.90;;;;;;5116689;28;20023;-82
2022/02/20 03:30:41;;;;;;;2.28;2.08;;;2.20;99.90;;;;;;5118007;28;20027;-83
2022/02/20 03:33:07;;;;;;;2.17;1.98;;;2.20;99.90;;;;;;5129437;28;20047;-81
2022/02/20 03:35:33;;;;;;;2.30;1.40;;;2.20;99.90;;;;;;5134497;27;20035;-81
2022/02/20 03:37:59;;;;;;;2.20;1.92;;;2.20;99.90;;;;;;5116851;28;20020;-81
2022/02/20 03:40:25;;;;;;;2.80;2.15;;;2.20;99.90;;;;;;5097267;28;20023;-83
2022/02/20 03:42:51;;;;;;;2.75;1.70;;;2.20;99.90;;;;;;5096459;28;20044;-82
2022/02/20 03:45:17;;;;;;;3.25;2.30;;;2.20;99.90;;;;;;5096545;28;20039;-83
2022/02/20 03:47:43;;;;;;;2.67;2.15;;;2.20;99.90;;;;;;5094468;28;20151;-82
2022/02/20 03:50:10;;;;;;;2.97;2.08;;;2.20;99.90;;;;;;5095740;28;20103;-82
2022/02/20 03:52:36;;;;;;;2.40;2.10;;;2.20;99.90;;;;;;5094453;28;20058;-82
2022/02/20 03:55:02;;;;;;;2.08;1.70;;;2.20;99.90;;;;;;5095768;28;20384;-83
2022/02/20 03:57:32;;;;;;;2.25;1.55;;;2.20;99.90;;;;;;5095736;28;20028;-84
2022/02/20 03:59:59;;;;;;;2.45;1.88;;;2.20;99.90;;;;;;5095895;28;20012;-83
2022/02/20 04:02:27;;;;;;;2.17;1.50;;;2.20;99.90;;;;;;5094932;28;20461;-83
2022/02/20 04:04:54;;;;;;;1.60;1.50;;;2.20;99.90;;;;;;5095897;28;20023;-83
2022/02/20 04:07:19;;;;;;;3.47;1.60;;;2.20;99.90;;;;;;5096166;28;20024;-82
2022/02/20 04:09:45;;;;;;;3.22;2.35;;;2.20;99.90;;;;;;5099744;28;20020;-81
2022/02/20 04:12:11;;;;;;;3.63;1.90;;;2.20;99.90;;;;;;5103364;28;20024;-84
2022/02/20 04:14:36;;;;;;;2.38;1.85;;;2.20;99.90;;;;;;5097145;28;20051;-81
2022/02/20 04:17:02;;;;;;;4.43;1.80;;;2.30;99.90;;;;;;5095106;28;20032;-82
2022/02/20 04:19:28;;;;;;;2.28;1.80;;;2.20;99.90;;;;;;5095235;28;20012;-82
2022/02/20 04:21:54;;;;;;;3.40;1.80;;;2.30;99.90;;;;;;5099385;28;20034;-83
2022/02/20 04:24:27;;;;;;;2.10;1.90;;;2.30;99.90;;;;;;5115514;27;20388;-84
2022/02/20 04:26:53;;;;;;;2.42;1.92;;;2.30;99.90;;;;;;5114107;28;20084;-82
2022/02/20 04:29:20;;;;;;;3.72;1.88;;;2.30;99.90;;;;;;5115239;28;20024;-82
2022/02/20 04:31:45;;;;;;;3.08;1.67;;;2.30;99.90;;;;;;5114924;28;20110;-81
2022/02/20 04:34:11;;;;;;;1.70;1.42;;;2.30;99.90;;;;;;5115066;28;20095;-82
2022/02/20 04:36:37;;;;;;;1.58;1.30;;;2.30;99.90;;;;;;5114917;28;20392;-82
2022/02/20 04:39:04;;;;;;;1.35;1.13;;;2.30;99.90;;;;;;5107404;28;20097;-84
2022/02/20 04:41:30;;;;;;;1.80;1.50;;;2.30;99.90;;;;;;5095631;28;20084;-82
2022/02/20 04:43:57;;;;;;;2.10;1.75;;;2.30;99.90;;;;;;5097105;28;20504;-83
2022/02/20 04:46:22;;;;;;;2.60;1.77;;;2.20;99.90;;;;;;5113761;28;20111;-82
2022/02/20 04:48:48;;;;;;;2.22;1.33;;;2.30;99.90;;;;;;5115803;28;20106;-81
2022/02/20 04:51:14;;;;;;;1.33;1.23;;;2.30;99.90;;;;;;5111439;28;20031;-82
2022/02/20 04:53:40;;;;;;;3.47;1.30;;;2.30;99.90;;;;;;5094448;28;20030;-83
2022/02/20 04:56:06;;;;;;;2.42;1.75;;;2.30;99.90;;;;;;5094236;28;20032;-85
2022/02/20 04:58:32;;;;;;;2.53;1.17;;;2.30;99.90;;;;;;5094194;28;20067;-82
2022/02/20 05:00:58;;;;;;;1.75;1.65;;;2.30;99.90;;;;;;5093449;28;20074;-81
2022/02/20 05:03:24;;;;;;;1.20;1.10;;;2.30;99.90;;;;;;5094144;28;20027;-81
2022/02/20 05:05:49;;;;;;;1.25;1.00;;;2.20;99.90;;;;;;5092986;28;20024;-82
2022/02/20 05:08:15;;;;;;;1.67;1.40;;;2.20;99.90;;;;;;5095181;28;20077;-81
2022/02/20 05:10:41;;;;;;;1.75;1.30;;;2.30;99.90;;;;;;5097416;28;20035;-82
2022/02/20 05:13:07;;;;;;;1.48;1.20;;;2.30;99.90;;;;;;5099087;28;20031;-84
2022/02/20 05:15:33;;;;;;;1.67;1.02;;;2.20;99.90;;;;;;5094813;28;20044;-83
2022/02/20 05:17:59;;;;;;;1.17;1.08;;;2.20;99.90;;;;;;5092621;28;20024;-84
2022/02/20 05:20:25;;;;;;;1.83;1.63;;;2.20;99.90;;;;;;5094213;28;20024;-84
2022/02/20 05:22:50;;;;;;;1.65;1.25;;;2.20;99.90;;;;;;5094252;28;20441;-83
2022/02/20 05:25:17;;;;;;;1.20;1.10;;;2.20;99.90;;;;;;5094741;28;20300;-80
2022/02/20 05:27:43;;;;;;;2.35;1.45;;;2.30;99.90;;;;;;5101465;28;20024;-83
2022/02/20 05:30:10;;;;;;;1.73;1.17;;;2.20;99.90;;;;;;5098313;28;20035;-81
2022/02/20 05:32:36;;;;;;;2.80;1.70;;;2.20;99.90;;;;;;5095268;28;20040;-81
2022/02/20 05:35:02;;;;;;;3.13;1.55;;;2.20;99.90;;;;;;5095010;28;20064;-80
2022/02/20 05:37:28;;;;;;;2.13;1.55;;;2.20;99.90;;;;;;5094218;28;20456;-83
2022/02/20 05:39:54;;;;;;;2.97;2.08;;;2.20;99.90;;;;;;5094418;28;20107;-81
2022/02/20 05:42:20;;;;;;;2.67;1.80;;;2.00;99.90;;;;;;5098680;28;20020;-80
2022/02/20 05:44:45;;;;;;;1.90;1.60;;;1.90;99.90;;;;;;5105718;28;20036;-82
2022/02/20 05:47:13;;;;;;;1.80;1.40;;;1.90;99.90;;;;;;5098876;28;20020;-82
2022/02/20 05:49:39;;;;;;;1.60;1.50;;;1.90;99.90;;;;;;5094722;28;20035;-83
2022/02/20 05:52:05;;;;;;;1.23;1.10;;;2.00;99.90;;;;;;5094414;28;20423;-82
2022/02/20 05:54:31;;;;;;;1.65;1.48;;;2.00;99.90;;;;;;5097435;28;20024;-83
2022/02/20 05:56:57;;;;;;;1.75;1.60;;;2.00;99.90;;;;;;5093351;28;20063;-83
2022/02/20 05:59:22;;;;;;;3.45;1.40;;;2.00;99.90;;;;;;5094074;28;20020;-82
2022/02/20 06:01:48;;;;;;;2.17;1.80;;;2.00;99.90;;;;;;5095692;28;20032;-85
2022/02/20 06:04:14;;;;;;;2.20;1.60;;;2.10;99.90;;;;;;5109258;28;20023;-82
2022/02/20 06:06:40;;;;;;;2.05;1.77;;;2.20;99.90;;;;;;5098036;28;20031;-83
2022/02/20 06:09:05;;;;;;;3.15;1.85;;;2.20;99.90;;;;;;5092224;28;20031;-83
2022/02/20 06:11:31;;;;;;;2.72;2.10;;;2.30;99.90;;;;;;5101429;28;20383;-81
2022/02/20 06:13:57;;;;;;;2.95;1.50;;;2.30;99.90;;;;;;5112195;28;20076;-83
2022/02/20 06:16:23;;;;;;;2.80;2.00;;;2.30;99.90;;;;;;5113667;28;20071;-83
2022/02/20 06:18:48;;;;;;;5.40;2.30;;;2.30;99.90;;;;;;5113722;28;20099;-82
2022/02/20 06:21:14;;;;;;;1.70;1.58;;;2.40;99.90;;;;;;5100770;28;20031;-80
2022/02/20 06:23:41;;;;;;;3.00;2.28;;;2.40;99.90;;;;;;5091407;28;20024;-81
2022/02/20 06:26:06;;;;;;;3.63;2.45;;;2.40;99.90;;;;;;5092619;28;20036;-80
2022/02/20 06:28:33;;;;;;;4.25;2.38;;;2.40;99.90;;;;;;5093841;28;20026;-83
2022/02/20 06:30:58;;;;;;;4.80;2.50;;;2.50;99.90;;;;;;5091207;28;20032;-81
2022/02/20 06:33:24;;;;;;;3.25;2.45;;;2.50;99.90;;;;;;5091460;28;20020;-82
2022/02/20 06:35:53;;;;;;;2.90;1.80;;;2.60;99.90;;;;;;5092642;28;20473;-81
2022/02/20 06:38:19;;;;;;;1.95;1.58;;;2.50;99.90;;;;;;5110428;28;20047;-82
2022/02/20 06:40:45;;;;;;;3.65;1.80;;;2.50;99.90;;;;;;5106865;28;20020;-81
2022/02/20 06:43:11;;;;;;;2.30;1.38;;;2.50;99.90;;;;;;5098717;28;20047;-81
2022/02/20 06:45:37;;;;;;;3.03;2.10;;;2.50;99.90;;;;;;5120055;28;20034;-82
2022/02/20 06:48:04;;;;;;;2.35;1.52;;;2.50;99.90;;;;;;5126252;28;20028;-83
2022/02/20 06:50:30;;;;;;;1.77;1.27;;;2.50;99.90;;;;;;5123067;28;20468;-80
2022/02/20 06:52:56;;;;;;;2.20;1.30;;;2.50;99.90;;;;;;5106898;28;20111;-82
2022/02/20 06:55:22;;;;;;;2.72;1.73;;;2.40;99.90;;;;;;5101274;28;20028;-83
2022/02/20 06:57:48;;;;;;;1.83;1.60;;;2.40;99.90;;;;;;5103132;28;20031;-82
2022/02/20 07:00:14;;;;;;;1.90;1.70;;;2.30;99.90;;;;;;5105535;28;20089;-83
2022/02/20 07:02:41;;;;;;;2.78;1.50;;;2.30;99.90;;;;;;5103492;28;20028;-80
2022/02/20 07:05:08;;;;;;;3.83;1.77;;;2.30;99.90;;;;;;5108481;28;20046;-82
2022/02/20 07:07:35;;;;;;;2.20;1.65;;;2.30;99.90;;;;;;5112592;28;20495;-81
2022/02/20 07:10:03;;;;;;;2.92;2.17;;;2.30;99.90;;;;;;5101231;28;20540;-81
2022/02/20 07:12:30;;;;;;;7.47;2.20;;;2.30;99.90;;;;;;5093462;28;20032;-82
2022/02/20 07:14:55;;;;;;;3.53;1.70;;;2.40;99.90;;;;;;5096643;28;20489;-82
2022/02/20 07:17:21;;;;;;;2.17;1.88;;;2.40;99.90;;;;;;5092888;28;20035;-83
2022/02/20 07:19:48;;;;;;;5.38;2.60;;;2.40;99.90;;;;;;5092529;28;20092;-81
2022/02/20 07:22:13;;;;;;;2.78;2.45;;;2.50;99.90;;;;;;5093715;28;20033;-82
2022/02/20 07:24:39;;;;;;;1.80;1.70;;;2.50;99.90;;;;;;5100109;28;20433;-82
2022/02/20 07:27:05;;;;;;;7.97;2.63;;;2.60;99.90;;;;;;5105550;28;20554;-83
2022/02/20 07:29:31;;;;;;;2.25;1.90;;;2.70;99.90;;;;;;5092711;28;20039;-82
2022/02/20 07:31:57;;;;;;;2.83;1.92;;;2.80;99.90;;;;;;5093196;28;20515;-83
2022/02/20 07:34:24;;;;;;;2.67;1.63;;;2.80;99.90;;;;;;5094791;28;20028;-82
2022/02/20 07:36:50;;;;;;;2.08;1.73;;;2.80;99.90;;;;;;5097949;28;20024;-83
2022/02/20 07:39:16;;;;;;;2.38;1.88;;;2.50;99.90;;;;;;5093006;28;20517;-82
2022/02/20 07:41:42;;;;;;;3.05;2.17;;;2.40;99.90;;;;;;5094788;28;20028;-83
2022/02/20 07:44:08;;;;;;;4.47;2.03;;;2.40;99.90;;;;;;5097028;28;20489;-83
2022/02/20 07:46:34;;;;;;;4.65;2.17;;;2.50;99.90;;;;;;5096739;28;20028;-84
2022/02/20 07:49:00;;;;;;;1.75;1.48;;;2.50;99.90;;;;;;5098942;28;20016;-84
2022/02/20 07:51:26;;;;;;;4.97;2.30;;;2.50;99.90;;;;;;5101638;28;20024;-81
2022/02/20 07:53:52;;;;;;;2.70;2.00;;;2.50;99.90;;;;;;5119187;28;20008;-81
2022/02/20 07:56:19;;;;;;;3.70;2.53;;;2.60;99.90;;;;;;5115477;28;20119;-83
2022/02/20 07:58:45;;;;;;;2.92;1.75;;;2.60;99.90;;;;;;5106749;28;20081;-83
2022/02/20 08:01:11;;;;;;;4.72;1.70;;;2.60;99.90;;;;;;5096932;28;20035;-84
2022/02/20 08:03:38;;;;;;;2.75;1.67;;;2.70;99.90;;;;;;5096381;28;20020;-84
2022/02/20 08:06:05;;;;;;;1.97;1.33;;;2.70;99.90;;;;;;5095643;28;20024;-83
2022/02/20 08:08:32;;;;;;;2.20;1.50;;;2.70;99.90;;;;;;5094604;28;20028;-85
2022/02/20 08:11:00;;;;;;;3.10;1.27;;;2.70;99.90;;;;;;5095650;28;20066;-81
2022/02/20 08:13:26;;;;;;;2.92;1.65;;;2.80;99.90;;;;;;5095093;28;20016;-82
2022/02/20 08:15:52;;;;;;;3.55;1.38;;;2.90;99.90;;;;;;5105390;28;20044;-84
2022/02/20 08:18:18;;;;;;;2.33;1.33;;;2.90;99.90;;;;;;5108635;28;20051;-83
2022/02/20 08:20:45;;;;;;;1.77;1.33;;;2.80;99.90;;;;;;5116928;27;20047;-83
2022/02/20 08:23:13;;;;;;;1.77;1.40;;;2.90;99.90;;;;;;5107338;28;20040;-83
2022/02/20 08:25:40;;;;;;;1.55;1.20;;;3.00;99.90;;;;;;5110748;28;20344;-80
2022/02/20 08:28:06;;;;;;;3.17;1.30;;;3.00;99.90;;;;;;5118381;28;20111;-82
2022/02/20 08:30:32;;;;;;;1.65;1.20;;;3.30;99.90;;;;;;5102378;28;20028;-82
2022/02/20 08:32:58;;;;;;;2.10;1.38;;;4.60;99.90;;;;;;5099056;28;20084;-83
2022/02/20 08:35:24;;;;;;;1.55;1.20;;;5.50;98.00;;;;;;5099224;28;20058;-83
2022/02/20 08:37:50;;;;;;;1.58;1.17;;;6.00;95.70;;;;;;5101505;28;20473;-81
2022/02/20 08:40:18;;;;;;;1.45;1.13;;;6.10;93.50;;;;;;5094812;28;20535;-83
2022/02/20 08:42:45;;;;;;;2.08;0.88;;;6.40;92.40;;;;;;5111812;28;20023;-82
2022/02/20 08:45:12;;;;;;;1.30;0.80;;;6.60;90.30;;;;;;5109782;28;20020;-83
2022/02/20 08:47:38;;;;;;;1.33;1.00;;;6.50;89.40;;;;;;5114586;28;20028;-84
2022/02/20 08:50:09;;;;;;;1.65;1.40;;;6.10;87.10;;;;;;5100825;28;20032;-82
2022/02/20 08:52:39;;;;;;;1.52;1.25;;;5.50;88.90;;;;;;5097043;28;20039;-82
2022/02/20 08:55:06;;;;;;;1.38;0.85;;;4.80;90.90;;;;;;5095378;28;20035;-83
2022/02/20 08:57:32;;;;;;;1.42;1.00;;;3.90;92.10;;;;;;5100435;28;20043;-80
2022/02/20 08:59:58;;;;;;;1.75;1.13;;;3.80;93.80;;;;;;5095955;28;20036;-82
2022/02/20 09:02:25;;;;;;;1.88;1.70;;;4.40;95.10;;;;;;5093946;28;20020;-83
2022/02/20 09:04:51;;;;;;;2.00;1.60;;;5.40;93.80;;;;;;5095121;28;20019;-86
2022/02/20 09:07:17;;;;;;;2.42;1.02;;;6.20;91.50;;;;;;5109680;28;20066;-82
2022/02/20 09:09:43;;;;;;;1.77;1.13;;;6.30;88.50;;;;;;5113490;28;20063;-81
2022/02/20 09:12:09;;;;;;;1.75;1.08;;;6.20;86.00;;;;;;5114860;28;20057;-84
2022/02/20 09:14:35;;;;;;;2.20;1.10;;;5.80;84.50;;;;;;5114855;28;20420;-84
2022/02/20 09:17:01;;;;;;;3.03;1.30;;;5.70;84.70;;;;;;5116055;28;20027;-82
2022/02/20 09:19:28;;;;;;;1.83;1.08;;;5.80;82.40;;;;;;5119728;28;20023;-82
2022/02/20 09:21:54;;;;;;;1.58;1.08;;;5.90;80.80;;;;;;5113461;28;20392;-91
2022/02/20 09:24:20;;;;;;;2.22;1.17;;;5.70;78.60;;;;;;5107344;28;20021;-83
2022/02/20 09:26:46;;;;;;;1.15;0.90;;;5.40;79.20;;;;;;5093560;28;20120;-82
2022/02/20 09:29:13;;;;;;;1.23;1.08;;;4.90;78.80;;;;;;5096618;28;20062;-81
2022/02/20 09:31:39;;;;;;;2.10;1.33;;;4.60;80.30;;;;;;5096913;27;20460;-82
2022/02/20 09:34:05;;;;;;;2.08;1.25;;;4.40;81.90;;;;;;5094164;28;20101;-83
2022/02/20 09:36:31;;;;;;;2.28;1.60;;;4.20;82.50;;;;;;5093796;28;20070;-81
2022/02/20 09:38:57;;;;;;;1.48;1.00;;;4.10;83.40;;;;;;5094358;28;20031;-83
2022/02/20 09:41:37;;;;;;;10.18;1.52;;;4.30;82.60;;;;;;5095632;28;20024;-81
2022/02/20 09:44:03;;;;;;;2.92;1.13;;;4.50;82.40;;;;;;5094211;28;20024;-83
2022/02/20 09:46:29;;;;;;;1.48;1.20;;;4.90;83.20;;;;;;5096550;28;20024;-83
2022/02/20 09:48:57;;;;;;;1.98;1.30;;;5.30;81.00;;;;;;5108357;28;20012;-82
2022/02/20 09:51:24;;;;;;;2.42;1.73;;;5.20;79.40;;;;;;5096115;28;20024;-84
2022/02/20 09:53:51;;;;;;;3.17;1.63;;;5.10;80.00;;;;;;5096645;28;20024;-85
2022/02/20 09:56:17;;;;;;;2.43;1.40;;;4.90;80.30;;;;;;5097932;28;20040;-84
2022/02/20 09:58:43;;;;;;;1.85;1.58;;;4.70;80.70;;;;;;5095760;28;20792;-81
2022/02/20 10:01:14;;;;;;;1.60;1.50;;;4.60;81.60;;;;;;5109779;28;20031;-81
2022/02/20 10:03:45;;;;;;;2.30;2.03;;;4.70;81.40;;;;;;5117773;28;20058;-85
2022/02/20 10:06:18;;;;;;;3.25;1.40;;;4.50;80.90;;;;;;5114585;28;20358;-86
2022/02/20 10:08:50;;;;;;;1.35;1.17;;;4.40;80.70;;;;;;5094539;28;20085;-85
2022/02/20 10:11:27;;;;;;;2.20;1.42;;;4.00;79.40;;;;;;5093556;28;20061;-81
2022/02/20 10:14:13;;;;;;;1.90;1.30;;;3.90;80.60;;;;;;5093268;28;20028;-82
2022/02/20 10:16:39;;;;;;;2.95;1.48;;;3.80;79.30;;;;;;5091867;28;20039;-82
2022/02/20 10:19:05;;;;;;;2.28;1.15;;;3.70;78.50;;;;;;5093296;28;20016;-82
2022/02/20 10:21:33;;;;;;;3.35;1.27;;;3.70;78.30;;;;;;5093045;28;20031;-84
2022/02/20 10:24:10;;;;;;;5.38;1.40;;;3.70;77.30;;;;;;5092977;28;20093;-83
2022/02/20 10:26:46;;;;;;;1.35;1.08;;;4.20;77.10;;;;;;5093003;28;20040;-84
2022/02/20 10:29:18;;;;;;;1.55;1.02;;;5.40;73.60;;;;;;5092866;28;20058;-83
2022/02/20 10:31:47;;;;;;;2.10;1.85;;;5.40;68.90;;;;;;5093439;28;20422;-85
2022/02/20 10:34:19;;;;;;;2.55;1.23;;;4.90;69.80;;;;;;5092782;28;20024;-82
2022/02/20 10:36:51;;;;;;;1.15;0.90;;;4.70;71.30;;;;;;5103510;28;20105;-84
2022/02/20 10:39:40;;;;;;;1.92;1.30;;;4.50;71.60;;;;;;5113349;28;20022;-83
2022/02/20 10:42:15;;;;;;;3.95;1.27;;;4.10;71.70;;;;;;5092607;28;20485;-81
2022/02/20 10:44:55;;;;;;;1.58;1.10;;;3.80;73.30;;;;;;5092916;28;20081;-81
2022/02/20 10:47:23;;;;;;;1.67;1.30;;;3.70;74.80;;;;;;5092981;28;20052;-82
2022/02/20 10:49:48;;;;;;;;;;;3.60;76.20;;;;;;5092845;28;20453;-84
2022/02/20 10:52:32;;;;;;;1.83;1.45;;;3.70;77.10;;;;;;5093684;28;19910;-85
2022/02/20 10:55:05;;;;;;;1.02;0.95;;;3.70;77.20;;;;;;5091234;28;20115;-83
2022/02/20 10:57:35;;;;;;;2.03;1.40;;;3.70;76.10;;;;;;5092994;28;20036;-82
2022/02/20 11:00:19;;;;;;;2.65;1.25;;;3.80;75.90;;;;;;5095129;28;20024;-85
2022/02/20 11:02:46;;;;;;;2.33;1.35;;;3.60;75.90;;;;;;5093196;28;20032;-83
2022/02/20 11:05:12;;;;;;;3.28;1.90;;;3.60;76.60;;;;;;5093434;28;20028;-82
2022/02/20 11:07:39;;;;;;;4.95;1.88;;;3.70;76.60;;;;;;5092578;28;20357;-83
2022/02/20 11:10:09;;;;;;;3.08;1.63;;;3.70;76.60;;;;;;5092677;28;20016;-81
2022/02/20 11:12:37;;;;;;;2.30;1.85;;;3.70;77.30;;;;;;5091459;28;20392;-83
2022/02/20 11:15:07;;;;;;;3.50;1.55;;;3.70;77.40;;;;;;5091682;28;20508;-82
2022/02/20 11:17:35;;;;;;;2.08;1.17;;;3.70;76.50;;;;;;5096097;28;20032;-83
2022/02/20 11:20:02;;;;;;;;;;;3.60;75.20;;;;;;5099599;28;20016;-80
2022/02/20 11:22:31;;;;;;;2.85;1.10;;;3.40;74.40;;;;;;5108807;28;20279;-79
2022/02/20 11:25:05;;;;;;;2.05;1.50;;;3.40;74.60;;;;;;5099647;28;20032;-82
2022/02/20 11:27:34;;;;;;;2.22;1.52;;;3.40;74.50;;;;;;5097443;28;20020;-83
2022/02/20 11:29:59;;;;;;;1.05;0.90;;;3.40;75.10;;;;;;5096989;28;20070;-82
2022/02/20 11:32:25;;;;;;;2.17;0.95;;;3.50;73.20;;;;;;5097316;28;20024;-82
2022/02/20 11:34:52;;;;;;;1.95;1.05;;;3.60;73.40;;;;;;5096733;28;20020;-83
2022/02/20 11:37:18;;;;;;;3.40;1.20;;;3.70;73.20;;;;;;5097466;28;20040;-84
2022/02/20 11:40:12;;;;;;;5.90;1.35;;;3.70;72.90;;;;;;5099554;28;20028;-82
2022/02/20 11:42:39;;;;;;;2.63;1.63;;;3.80;72.30;;;;;;5106386;28;20028;-83
2022/02/20 11:45:07;;;;;;;1.98;1.00;;;3.80;71.60;;;;;;5096294;28;20022;-84
2022/02/20 11:47:43;;;;;;;;;;;3.70;70.10;;;;;;5107632;28;20400;-81
2022/02/20 11:50:18;;;;;;;4.18;1.13;;;3.60;71.10;;;;;;5096422;28;19907;-81
2022/02/20 11:52:48;;;;;;;1.50;1.00;;;3.40;70.30;;;;;;5096877;28;20023;-81
2022/02/20 11:55:29;;;;;;;2.13;1.05;;;3.30;71.10;;;;;;5097004;28;20035;-84
2022/02/20 11:58:21;;;;;;;2.83;1.23;;;3.20;71.60;;;;;;5096989;28;20024;-80
2022/02/20 12:01:03;;;;;;;1.90;1.48;;;3.20;72.80;;;;;;5088712;28;20047;-83
2022/02/20 12:03:53;;;;;;;2.20;1.20;;;3.20;72.40;;;;;;5101001;28;20054;-82
2022/02/20 12:06:24;;;;;;;1.58;1.15;;;3.30;72.60;;;;;;5102349;28;20024;-82
2022/02/20 12:08:58;;;;;;;2.95;1.05;;;3.40;72.70;;;;;;5105273;28;20020;-81
2022/02/20 12:11:39;;;;;;;2.05;1.42;;;3.50;72.00;;;;;;5108850;28;20380;-81
2022/02/20 12:14:22;;;;;;;0.75;0.60;;;3.40;71.70;;;;;;5122819;28;20024;-84
2022/02/20 12:16:50;;;;;;;0.50;0.50;;;3.40;69.50;;;;;;5120281;27;20123;-82
2022/02/20 12:19:35;;;;;;;1.20;1.10;;;3.30;67.80;;;;;;5119453;28;20068;-86
2022/02/20 12:22:30;;;;;;;1.10;0.77;;;3.30;69.10;;;;;;5118399;27;20050;-82
2022/02/20 12:24:58;;;;;;;3.67;1.77;;;3.30;68.80;;;;;;5099732;28;20036;-82
2022/02/20 12:27:26;;;;;;;1.73;0.73;;;3.20;69.00;;;;;;5115238;28;20023;-80
2022/02/20 12:29:53;;;;;;;2.88;1.13;;;3.10;68.60;;;;;;5117407;28;20020;-83
2022/02/20 12:32:29;;;;;;;3.38;1.50;;;3.10;69.40;;;;;;5116540;28;20039;-82
2022/02/20 12:35:02;;;;;;;2.42;1.48;;;3.20;69.80;;;;;;5117665;28;20515;-82
2022/02/20 12:37:57;;;;;;;3.75;1.17;;;3.20;69.40;;;;;;5118214;27;20063;-83
2022/02/20 12:40:27;;;;;;;1.63;1.25;;;3.20;69.90;;;;;;5078278;28;20028;-83
2022/02/20 12:43:03;;;;;;;1.17;1.10;;;3.20;69.80;;;;;;5095362;28;20082;-84
2022/02/20 12:45:31;;;;;;;1.15;0.80;;;3.10;70.30;;;;;;5109102;28;20027;-84
2022/02/20 12:47:59;;;;;;;2.67;1.45;;;3.00;71.00;;;;;;5103843;27;20094;-84
2022/02/20 12:50:31;;;;;;;2.90;1.75;;;3.00;71.70;;;;;;5094549;28;20020;-85
2022/02/20 12:52:58;;;;;;;6.40;3.95;;;3.00;72.30;;;;;;5093859;28;20039;-85
2022/02/20 12:55:24;;;;;;;8.00;3.00;;;3.00;72.90;;;;;;5106609;28;20020;-87
2022/02/20 12:57:59;;;;;;;4.03;2.30;;;3.10;74.00;;;;;;5114564;28;20040;-82
2022/02/20 13:00:32;;;;;;;2.65;1.88;;;3.10;74.20;;;;;;5097493;28;20380;-84